Genco Loire — V7GN8 — position and weather

sailwx.info

Track history (hours):
 
Tides and Currents Weather Stations Pressure Air Temp Water Temp Dewpoint Dewpoint Depression Visibility Wind Speed Wind Dir Waves Ship Positions

Genco Loire

Last reported at 2015-Feb-18 23:33 UTC. Time now 2015-Mar-04 00:11 UTC.
Position S 29°43' E 031°35'.
Warning: this ship's position is 13 days out of date.

Length 190 m; draft 6.3 m.

MMSI: 538002760.

Date/timePositionNaut miles runAvg speedWind from/ knotsBaromVisibWave heightAir tempDewpointWater temp
2015-Feb-18 23:33S 29°43' E 031°35'1111.5
2015-Feb-18 22:33S 29°46' E 031°22'1212.0
2015-Feb-18 21:33S 29°50' E 031°09'6 6.1
2015-Feb-18 20:33S 29°52' E 031°03'0 0.0
2015-Feb-18 19:32S 29°52' E 031°03'0 0.0
2015-Feb-18 18:32S 29°52' E 031°03'0 0.0
2015-Feb-18 17:32S 29°52' E 031°03'0 0.0
2015-Feb-18 16:32S 29°52' E 031°03'0 0.0
2015-Feb-18 15:32S 29°52' E 031°03'0 0.0
2015-Feb-18 14:32S 29°52' E 031°03'0 0.0
2015-Feb-18 13:32S 29°52' E 031°03'0 0.0
2015-Feb-18 12:32S 29°52' E 031°03'0 0.0
2015-Feb-18 11:32S 29°52' E 031°03'0 0.0
2015-Feb-18 10:32S 29°52' E 031°03'0 0.0
2015-Feb-18 09:32S 29°52' E 031°03'0 0.0
2015-Feb-18 08:32S 29°52' E 031°03'4 3.9
2015-Feb-18 07:33S 29°51' E 031°06'9 9.4
2015-Feb-18 06:34S 29°60' E 031°08'1211.6
2015-Feb-18 05:33S 30°11' E 031°09'225 9.8
2015-Feb-17 06:31S 33°08' E 028°24'11 9.0
2015-Feb-17 05:20S 33°15' E 028°14'9 9.1
2015-Feb-17 04:22S 33°20' E 028°06'  
Track history (hours):
 
Tides and Currents Weather Stations Pressure Air Temp Water Temp Dewpoint Dewpoint Depression Visibility Wind Speed Wind Dir Waves Ship Positions

Genco Loire

Last reported at 2015-Feb-18 23:33 UTC. Time now 2015-Mar-04 00:11 UTC.
Position S 29°43' E 031°35'.
Warning: this ship's position is 13 days out of date.

Length 190 m; draft 6.3 m.

MMSI: 538002760.

Date/timePositionNaut miles runAvg speedWind from/ knotsBaromVisibWave heightAir tempDewpointWater temp
2015-Feb-18 23:33S 29°43' E 031°35'1111.5
2015-Feb-18 22:33S 29°46' E 031°22'1212.0
2015-Feb-18 21:33S 29°50' E 031°09'6 6.1
2015-Feb-18 20:33S 29°52' E 031°03'0 0.0
2015-Feb-18 19:32S 29°52' E 031°03'0 0.0
2015-Feb-18 18:32S 29°52' E 031°03'0 0.0
2015-Feb-18 17:32S 29°52' E 031°03'0 0.0
2015-Feb-18 16:32S 29°52' E 031°03'0 0.0
2015-Feb-18 15:32S 29°52' E 031°03'0 0.0
2015-Feb-18 14:32S 29°52' E 031°03'0 0.0
2015-Feb-18 13:32S 29°52' E 031°03'0 0.0
2015-Feb-18 12:32S 29°52' E 031°03'0 0.0
2015-Feb-18 11:32S 29°52' E 031°03'0 0.0
2015-Feb-18 10:32S 29°52' E 031°03'0 0.0
2015-Feb-18 09:32S 29°52' E 031°03'0 0.0
2015-Feb-18 08:32S 29°52' E 031°03'4 3.9
2015-Feb-18 07:33S 29°51' E 031°06'9 9.4
2015-Feb-18 06:34S 29°60' E 031°08'1211.6
2015-Feb-18 05:33S 30°11' E 031°09'225 9.8
2015-Feb-17 06:31S 33°08' E 028°24'11 9.0
2015-Feb-17 05:20S 33°15' E 028°14'9 9.1
2015-Feb-17 04:22S 33°20' E 028°06'  

Dump ship's entire track history